Terminal Aerodrome Forecast
Issued by NWS

Home | Current Version | Previous Version | Text Only | Print | Product List | Glossary On
Versions: 1 2 3 4 5 6 7 8 9 10 11 12 13 14 15 16 17 18 19 20 21
000
FTUS42 KFFC 010523
TAFFTY
TAF
KFTY 010523Z 0106/0206 01005KT P6SM BKN070
     FM011600 05006KT P6SM SCT040
     FM012200 02004KT P6SM SCT050
     FM020200 00000KT P6SM FEW250=

USA.gov is the U.S. government's official web portal to all federal, state and local government web resources and services.